createdAt,value
2022-08-08T00:01:00.341Z,0.8
2022-08-08T00:06:02.988Z,1.1
2022-08-08T00:10:52.080Z,1.3
2022-08-08T00:15:57.707Z,1.0
2022-08-08T00:20:52.124Z,1.1
2022-08-08T00:25:52.033Z,1.2
2022-08-08T00:31:00.397Z,0.8
2022-08-08T00:35:51.928Z,1.0
2022-08-08T00:41:12.597Z,0.9
2022-08-08T00:45:51.819Z,0.6
2022-08-08T00:50:53.356Z,0.9
2022-08-08T01:00:51.804Z,1.0
2022-08-08T01:05:59.110Z,0.7
2022-08-08T01:10:52.315Z,1.1
2022-08-08T01:20:51.443Z,0.9
2022-08-08T01:25:53.920Z,1.0
2022-08-08T01:30:53.484Z,1.2
2022-08-08T01:35:51.182Z,1.1
2022-08-08T01:45:54.506Z,0.9
2022-08-08T01:50:50.991Z,1.1
2022-08-08T01:56:28.730Z,1.0
2022-08-08T02:10:50.795Z,1.1
2022-08-08T02:15:50.622Z,1.2
2022-08-08T02:21:03.134Z,0.9
2022-08-08T02:25:50.336Z,1.2
2022-08-08T02:30:58.129Z,1.1
2022-08-08T02:36:03.916Z,0.9
2022-08-08T02:40:50.586Z,1.2
2022-08-08T02:45:54.213Z,1.3
2022-08-08T02:50:55.857Z,1.1
2022-08-08T03:05:51.502Z,1.5
2022-08-08T03:10:53.981Z,1.1
2022-08-08T03:15:59.348Z,0.9
2022-08-08T03:20:51.637Z,1.1
2022-08-08T03:25:50.354Z,1.3
2022-08-08T03:30:49.105Z,1.1
2022-08-08T03:35:49.276Z,1.0
2022-08-08T03:46:07.018Z,1.1
2022-08-08T03:55:57.394Z,1.0
2022-08-08T04:05:50.028Z,1.1
2022-08-08T04:10:47.114Z,1.2
2022-08-08T04:16:04.195Z,1.1
2022-08-08T04:20:46.727Z,1.4
2022-08-08T04:25:46.597Z,1.0
2022-08-08T04:30:46.379Z,1.1
2022-08-08T04:55:55.117Z,1.0
2022-08-08T05:00:48.321Z,1.1
2022-08-08T05:05:45.753Z,1.4
2022-08-08T05:10:44.869Z,1.2
2022-08-08T05:16:54.722Z,1.3
2022-08-08T05:25:44.308Z,1.2
2022-08-08T05:35:43.938Z,1.4
2022-08-08T05:40:43.714Z,1.5
2022-08-08T05:45:54.924Z,1.4
2022-08-08T05:50:43.361Z,1.5
2022-08-08T05:56:11.698Z,1.3
2022-08-08T06:00:44.567Z,1.4
2022-08-08T06:10:42.716Z,1.6
2022-08-08T06:15:50.602Z,1.8
2022-08-08T06:20:42.368Z,1.6
2022-08-08T06:26:35.697Z,1.7
2022-08-08T06:30:42.008Z,1.6
2022-08-08T06:36:08.636Z,1.7
2022-08-08T06:40:48.731Z,2.5
2022-08-08T06:45:41.550Z,1.6
2022-08-08T06:50:41.442Z,1.8
2022-08-08T06:55:41.776Z,1.7
2022-08-08T07:00:41.324Z,1.6
2022-08-08T07:10:47.551Z,1.7
2022-08-08T07:16:05.161Z,1.6
2022-08-08T07:20:50.520Z,2.2
2022-08-08T07:25:54.163Z,1.9
2022-08-08T07:30:41.019Z,1.8
2022-08-08T07:35:41.117Z,1.5
2022-08-08T07:45:51.526Z,1.6
2022-08-08T07:50:41.189Z,1.4
2022-08-08T07:55:41.179Z,1.7
2022-08-08T08:00:41.373Z,1.5
2022-08-08T08:10:41.665Z,1.6
2022-08-08T08:15:41.532Z,1.7
2022-08-08T08:20:41.672Z,1.4
2022-08-08T08:25:45.976Z,1.1
2022-08-08T08:30:41.991Z,1.3
2022-08-08T08:36:20.500Z,1.2
2022-08-08T08:40:42.259Z,1.3
2022-08-08T08:45:42.473Z,1.2
2022-08-08T08:50:42.638Z,1.5
2022-08-08T08:55:43.049Z,1.3
2022-08-08T09:01:04.862Z,1.2
2022-08-08T09:15:43.993Z,1.0
2022-08-08T09:22:05.303Z,1.2
2022-08-08T09:26:00.588Z,1.1
2022-08-08T09:30:44.815Z,0.9
2022-08-08T09:35:49.078Z,1.0
2022-08-08T09:40:55.605Z,1.2
2022-08-08T09:46:01.312Z,0.9
2022-08-08T09:50:50.139Z,1.1
2022-08-08T09:56:03.474Z,0.9
2022-08-08T10:00:50.092Z,1.0
2022-08-08T10:05:47.516Z,0.9
2022-08-08T10:10:50.999Z,0.8
2022-08-08T10:15:58.909Z,0.9
2022-08-08T10:20:58.162Z,0.8
2022-08-08T10:31:00.661Z,1.0
2022-08-08T10:36:08.998Z,0.7
2022-08-08T10:40:51.007Z,1.0
2022-08-08T10:45:55.921Z,0.7
2022-08-08T10:50:52.142Z,0.8
2022-08-08T11:01:02.213Z,0.7
2022-08-08T11:16:01.339Z,0.6
2022-08-08T11:25:58.379Z,0.7
2022-08-08T11:30:56.915Z,0.6
2022-08-08T11:35:57.583Z,0.7
2022-08-08T11:40:58.193Z,0.6
2022-08-08T11:56:00.314Z,0.7
2022-08-08T12:01:01.015Z,0.6
2022-08-08T12:06:01.694Z,0.7
2022-08-08T12:16:03.131Z,0.6
2022-08-08T12:21:03.838Z,0.7
2022-08-08T12:26:04.583Z,0.8
2022-08-08T12:31:05.454Z,0.6
2022-08-08T12:41:18.317Z,0.8
2022-08-08T12:46:07.816Z,0.7
2022-08-08T13:01:11.167Z,0.5
2022-08-08T13:06:13.882Z,0.7
2022-08-08T13:11:12.026Z,0.6
2022-08-08T13:21:13.947Z,0.7
2022-08-08T13:26:15.386Z,0.6
2022-08-08T13:31:16.488Z,0.8
2022-08-08T13:41:17.917Z,0.5
2022-08-08T13:51:33.661Z,0.4
2022-08-08T13:56:21.206Z,0.6
2022-08-08T14:01:23.302Z,0.5
2022-08-08T14:11:24.547Z,0.6
2022-08-08T14:21:26.995Z,0.7
2022-08-08T14:26:28.456Z,0.8
2022-08-08T14:32:06.224Z,0.6
2022-08-08T14:41:53.828Z,0.8
2022-08-08T14:46:34.148Z,0.6
2022-08-08T14:56:35.152Z,0.7
2022-08-08T15:01:40.660Z,0.5
2022-08-08T15:06:37.583Z,0.7
2022-08-08T15:11:42.900Z,0.6
2022-08-08T15:16:39.764Z,0.7
2022-08-08T15:21:42.759Z,0.5
2022-08-08T15:26:42.323Z,0.6
2022-08-08T15:36:44.200Z,0.5
2022-08-08T15:41:46.051Z,0.6
2022-08-08T15:46:50.813Z,0.5
2022-08-08T15:56:47.949Z,0.8
2022-08-08T16:01:59.963Z,0.6
2022-08-08T16:06:49.680Z,0.7
2022-08-08T16:13:04.465Z,0.8
2022-08-08T16:16:51.310Z,0.6
2022-08-08T16:26:53.003Z,0.5
2022-08-08T16:31:53.557Z,0.7
2022-08-08T16:36:54.340Z,0.6
2022-08-08T16:46:56.464Z,0.7
2022-08-08T16:57:01.841Z,0.6
2022-08-08T17:01:57.926Z,1.0
2022-08-08T17:06:58.637Z,0.6
2022-08-08T17:12:02.063Z,0.5
2022-08-08T17:17:01.578Z,0.7
2022-08-08T17:22:01.123Z,0.5
2022-08-08T17:27:01.704Z,0.6
2022-08-08T17:37:06.773Z,0.7
2022-08-08T17:42:03.540Z,0.5
2022-08-08T17:47:04.180Z,0.6
2022-08-08T17:52:04.919Z,0.7
2022-08-08T18:02:06.123Z,0.8
2022-08-08T18:12:12.735Z,0.7
2022-08-08T18:17:17.569Z,0.9
2022-08-08T18:27:17.416Z,0.7
2022-08-08T18:37:17.695Z,0.5
2022-08-08T18:42:14.406Z,0.7
2022-08-08T18:52:18.397Z,0.6
2022-08-08T18:57:12.840Z,0.8
2022-08-08T19:02:25.691Z,0.7
2022-08-08T19:07:13.967Z,0.6
2022-08-08T19:12:14.481Z,0.8
2022-08-08T19:17:29.452Z,0.6
2022-08-08T19:22:21.677Z,1.0
2022-08-08T19:27:16.177Z,0.6
2022-08-08T19:32:19.637Z,0.8
2022-08-08T19:42:17.752Z,0.6
2022-08-08T19:47:23.966Z,0.7
2022-08-08T19:52:34.427Z,0.8
2022-08-08T19:57:19.214Z,0.6
2022-08-08T20:02:19.737Z,0.9
2022-08-08T20:08:31.221Z,0.8
2022-08-08T20:12:32.893Z,0.9
2022-08-08T20:17:27.757Z,0.7
2022-08-08T20:27:21.912Z,0.6
2022-08-08T20:32:22.367Z,1.0
2022-08-08T20:37:22.714Z,0.9
2022-08-08T20:42:28.798Z,1.3
2022-08-08T20:52:23.849Z,1.1
2022-08-08T20:57:26.900Z,0.9
2022-08-08T21:02:25.768Z,1.4
2022-08-08T21:07:47.805Z,1.2
2022-08-08T21:12:32.175Z,1.3
2022-08-08T21:17:25.572Z,1.1
2022-08-08T21:22:28.824Z,1.4
2022-08-08T21:27:38.872Z,1.6
2022-08-08T21:32:26.480Z,1.5
2022-08-08T21:37:54.025Z,1.2
2022-08-08T21:42:27.034Z,1.1
2022-08-08T21:48:00.160Z,1.0
2022-08-08T21:54:22.984Z,1.2
2022-08-08T22:07:34.625Z,1.1
2022-08-08T22:17:28.884Z,0.9
2022-08-08T22:27:38.448Z,1.0
2022-08-08T22:32:29.613Z,0.9
2022-08-08T22:37:53.704Z,1.1
2022-08-08T22:42:31.921Z,0.8
2022-08-08T22:47:34.229Z,1.1
2022-08-08T22:52:33.697Z,1.0
2022-08-08T22:57:30.923Z,1.1
2022-08-08T23:02:31.607Z,0.9
2022-08-08T23:07:50.992Z,1.3
2022-08-08T23:12:40.278Z,1.2
2022-08-08T23:17:31.601Z,1.4
2022-08-08T23:22:31.898Z,1.3
2022-08-08T23:27:39.466Z,1.2
2022-08-08T23:32:32.457Z,1.5
2022-08-08T23:37:54.038Z,1.2
2022-08-08T23:42:32.973Z,1.5
2022-08-08T23:49:03.134Z,1.6
2022-08-08T23:52:33.404Z,2.7
2022-08-08T23:57:38.797Z,1.5
